createdAt,value
2023-11-29T00:00:13.901Z,98570.19
2023-11-29T00:01:11.157Z,98561.00
2023-11-29T00:02:08.602Z,98576.09
2023-11-29T00:03:07.139Z,98566.78
2023-11-29T00:04:04.677Z,98571.28
2023-11-29T00:05:03.099Z,98568.16
2023-11-29T00:06:00.553Z,98569.59
2023-11-29T00:07:00.006Z,98572.12
2023-11-29T00:07:57.445Z,98577.28
2023-11-29T00:08:58.827Z,98576.47
2023-11-29T00:09:56.261Z,98571.78
2023-11-29T00:10:53.390Z,98575.25
2023-11-29T00:11:50.982Z,98579.56
2023-11-29T00:12:48.442Z,98588.72
2023-11-29T00:13:45.961Z,98586.38
2023-11-29T00:14:43.645Z,98590.87
2023-11-29T00:15:41.416Z,98595.88
2023-11-29T00:16:38.474Z,98604.81
2023-11-29T00:17:36.145Z,98611.09
2023-11-29T00:18:33.922Z,98608.97
2023-11-29T00:19:31.973Z,98614.47
2023-11-29T00:20:29.283Z,98612.78
2023-11-29T00:21:28.919Z,98623.75
2023-11-29T00:22:26.279Z,98623.13
2023-11-29T00:23:23.641Z,98620.78
2023-11-29T00:24:20.856Z,98628.75
2023-11-29T00:25:18.601Z,98626.78
2023-11-29T00:26:15.872Z,98623.75
2023-11-29T00:27:13.354Z,98627.78
2023-11-29T00:28:10.551Z,98623.44
2023-11-29T00:29:08.097Z,98626.94
2023-11-29T00:30:06.027Z,98626.78
2023-11-29T00:31:03.666Z,98623.56
2023-11-29T00:32:01.691Z,98629.03
2023-11-29T00:32:59.283Z,98627.72
2023-11-29T00:33:56.809Z,98630.38
2023-11-29T00:34:54.534Z,98635.69
2023-11-29T00:35:51.904Z,98630.53
2023-11-29T00:36:51.353Z,98639.88
2023-11-29T00:37:49.500Z,98643.38
2023-11-29T00:38:47.118Z,98647.69
2023-11-29T00:39:44.592Z,98644.44
2023-11-29T00:40:42.058Z,98648.31
2023-11-29T00:41:39.392Z,98647.16
2023-11-29T00:42:36.832Z,98653.09
2023-11-29T00:55:52.688Z,98690.78
2023-11-29T00:56:50.017Z,98690.78
2023-11-29T00:57:47.671Z,98687.97
2023-11-29T00:58:44.817Z,98689.97
2023-11-29T00:59:42.069Z,98688.59
2023-11-29T01:00:39.607Z,98694.03
2023-11-29T01:01:37.528Z,98691.22
2023-11-29T01:02:35.481Z,98691.69
2023-11-29T01:03:33.097Z,98698.59
2023-11-29T01:04:30.455Z,98702.25
2023-11-29T01:05:27.805Z,98696.94
2023-11-29T01:06:25.423Z,98706.91
2023-11-29T01:07:22.944Z,98708.19
2023-11-29T01:08:26.884Z,98715.72
2023-11-29T01:09:24.498Z,98714.25
2023-11-29T01:10:24.285Z,98711.22
2023-11-29T01:11:25.306Z,98715.84
2023-11-29T01:12:22.608Z,98705.25
2023-11-29T01:13:24.175Z,98711.63
2023-11-29T01:14:21.734Z,98711.00
2023-11-29T01:15:19.250Z,98714.22
2023-11-29T01:16:16.984Z,98712.00
2023-11-29T01:17:14.183Z,98719.47
2023-11-29T01:18:11.845Z,98719.97
2023-11-29T01:19:09.386Z,98736.09
2023-11-29T01:20:08.421Z,98733.75
2023-11-29T01:21:06.144Z,98726.63
2023-11-29T01:22:03.787Z,98735.87
2023-11-29T01:23:01.047Z,98742.56
2023-11-29T01:23:58.163Z,98740.06
2023-11-29T01:24:55.421Z,98733.75
2023-11-29T01:25:52.953Z,98736.31
2023-11-29T01:26:50.391Z,98731.09
2023-11-29T01:27:47.712Z,98736.56
2023-11-29T01:28:44.919Z,98740.44
2023-11-29T01:29:43.045Z,98738.06
2023-11-29T01:30:40.546Z,98743.09
2023-11-29T01:31:37.909Z,98749.69
2023-11-29T01:32:35.417Z,98745.59
2023-11-29T01:33:36.054Z,98745.59
2023-11-29T01:34:33.635Z,98742.41
2023-11-29T01:35:31.258Z,98748.56
2023-11-29T01:36:28.657Z,98740.91
2023-11-29T01:37:26.226Z,98744.66
2023-11-29T01:38:23.935Z,98739.34
2023-11-29T01:39:21.262Z,98746.62
2023-11-29T01:40:18.767Z,98744.66
2023-11-29T01:41:16.181Z,98739.34
2023-11-29T01:42:13.809Z,98750.66
2023-11-29T01:43:11.177Z,98758.91
2023-11-29T01:44:09.608Z,98751.53
2023-11-29T01:45:07.467Z,98756.97
2023-11-29T01:46:05.683Z,98755.97
2023-11-29T01:47:10.657Z,98759.91
2023-11-29T01:48:08.801Z,98761.28
2023-11-29T01:49:06.874Z,98762.91
2023-11-29T01:50:06.414Z,98765.87
2023-11-29T01:51:04.207Z,98774.47
2023-11-29T01:52:01.705Z,98767.53
2023-11-29T01:52:59.224Z,98770.19
2023-11-29T01:53:59.422Z,98783.22
2023-11-29T01:54:57.283Z,98778.47
2023-11-29T01:55:55.851Z,98779.53
2023-11-29T01:56:53.877Z,98777.41
2023-11-29T01:57:51.987Z,98772.84
2023-11-29T01:59:16.695Z,98778.00
2023-11-29T02:00:40.325Z,98774.25
2023-11-29T02:01:37.387Z,98777.41
2023-11-29T02:02:34.655Z,98775.81
2023-11-29T02:03:31.867Z,98780.13
2023-11-29T02:04:29.029Z,98772.94
2023-11-29T02:05:26.184Z,98772.75
2023-11-29T02:06:23.419Z,98776.44
2023-11-29T02:07:20.487Z,98776.41
2023-11-29T02:08:18.642Z,98791.19
2023-11-29T02:09:16.244Z,98784.97
2023-11-29T02:10:13.675Z,98784.00
2023-11-29T02:11:11.794Z,98784.53
2023-11-29T02:12:09.654Z,98780.59
2023-11-29T02:13:07.008Z,98774.91
2023-11-29T02:14:04.236Z,98782.41
2023-11-29T02:15:01.459Z,98782.56
2023-11-29T02:15:58.721Z,98778.47
2023-11-29T02:16:56.013Z,98779.84
2023-11-29T02:17:53.512Z,98786.81
2023-11-29T02:18:50.655Z,98782.41
2023-11-29T02:19:48.078Z,98779.34
2023-11-29T02:20:45.310Z,98782.00
2023-11-29T02:21:43.062Z,98776.53
2023-11-29T02:22:41.639Z,98783.69
2023-11-29T02:23:46.445Z,98785.66
2023-11-29T02:24:44.224Z,98793.91
2023-11-29T02:25:41.175Z,98798.53
2023-11-29T02:26:38.366Z,98801.94
2023-11-29T02:27:35.443Z,98800.50
2023-11-29T02:28:34.894Z,98809.16
2023-11-29T02:29:32.054Z,98803.31
2023-11-29T02:30:29.341Z,98808.62
2023-11-29T02:31:26.399Z,98812.56
2023-11-29T02:32:23.564Z,98820.22
2023-11-29T02:33:20.668Z,98815.22
2023-11-29T02:34:17.955Z,98821.25
2023-11-29T02:35:15.024Z,98829.34
2023-11-29T02:36:12.093Z,98825.03
2023-11-29T02:37:09.110Z,98826.87
2023-11-29T02:38:06.182Z,98829.78
2023-11-29T02:39:03.372Z,98823.41
2023-11-29T02:40:00.309Z,98832.34
2023-11-29T02:40:57.314Z,98834.34
2023-11-29T02:41:55.030Z,98829.03
2023-11-29T02:42:52.163Z,98828.41
2023-11-29T02:43:56.519Z,98827.44
2023-11-29T02:44:53.664Z,98827.44
2023-11-29T02:45:50.686Z,98827.19
2023-11-29T02:46:47.675Z,98831.50
2023-11-29T02:47:44.745Z,98828.72
2023-11-29T02:48:41.985Z,98831.94
2023-11-29T02:49:39.328Z,98831.94
2023-11-29T02:50:36.935Z,98836.78
2023-11-29T02:51:34.454Z,98841.00
2023-11-29T02:52:31.476Z,98838.38
2023-11-29T02:53:28.516Z,98839.62
2023-11-29T02:54:25.522Z,98844.50
2023-11-29T02:55:22.685Z,98845.09
2023-11-29T02:56:20.779Z,98851.38
2023-11-29T02:57:17.870Z,98855.84
2023-11-29T02:58:14.839Z,98862.41
2023-11-29T02:59:11.928Z,98858.50
2023-11-29T03:00:10.712Z,98865.06
2023-11-29T03:01:07.813Z,98865.13
2023-11-29T03:02:05.333Z,98871.94
2023-11-29T03:03:02.401Z,98867.88
2023-11-29T03:03:59.374Z,98863.69
2023-11-29T03:04:56.458Z,98874.47
2023-11-29T03:05:53.481Z,98864.81
2023-11-29T03:06:50.529Z,98869.81
2023-11-29T03:07:47.688Z,98873.19
2023-11-29T03:08:45.079Z,98872.09
2023-11-29T03:09:42.158Z,98866.63
2023-11-29T03:10:39.325Z,98879.78
2023-11-29T03:11:36.332Z,98876.56
2023-11-29T03:12:33.336Z,98872.53
2023-11-29T03:13:30.298Z,98872.37
2023-11-29T03:14:27.585Z,98871.94
2023-11-29T03:15:24.669Z,98870.12
2023-11-29T03:16:22.138Z,98874.22
2023-11-29T03:17:19.187Z,98868.47
2023-11-29T03:18:16.309Z,98870.00
2023-11-29T03:19:13.519Z,98879.22
2023-11-29T03:20:10.940Z,98878.38
2023-11-29T03:21:08.248Z,98878.38
2023-11-29T03:22:05.553Z,98883.56
2023-11-29T03:23:02.550Z,98877.41
2023-11-29T03:23:59.485Z,98887.47
2023-11-29T03:24:56.569Z,98883.69
2023-11-29T03:25:53.529Z,98886.50
2023-11-29T03:26:50.626Z,98892.22
2023-11-29T03:27:47.598Z,98884.97
2023-11-29T03:28:49.042Z,98886.66
2023-11-29T03:29:46.246Z,98888.44
2023-11-29T03:30:43.253Z,98888.19
2023-11-29T03:31:40.290Z,98887.34
2023-11-29T03:32:37.400Z,98892.25
2023-11-29T03:33:34.627Z,98892.34
2023-11-29T03:34:31.808Z,98898.25
2023-11-29T03:35:28.866Z,98896.56
2023-11-29T03:36:25.917Z,98907.03
2023-11-29T03:37:23.039Z,98903.41
2023-11-29T03:38:20.213Z,98901.88
2023-11-29T03:39:17.385Z,98911.09
2023-11-29T03:40:14.460Z,98907.19
2023-11-29T03:41:11.609Z,98901.19
2023-11-29T03:42:08.768Z,98904.37
2023-11-29T03:43:06.077Z,98901.72
2023-11-29T03:44:03.184Z,98911.50
2023-11-29T03:45:02.089Z,98906.06
2023-11-29T03:45:59.185Z,98903.97
2023-11-29T03:46:56.281Z,98904.50
2023-11-29T03:47:53.317Z,98903.16
2023-11-29T03:48:50.514Z,98907.44
2023-11-29T03:49:47.715Z,98904.53
2023-11-29T03:50:46.060Z,98906.62
2023-11-29T03:51:47.104Z,98905.50
2023-11-29T03:52:46.137Z,98916.53
2023-11-29T03:53:43.137Z,98903.97
2023-11-29T03:54:40.184Z,98915.69
2023-11-29T03:55:37.338Z,98909.97
2023-11-29T03:56:34.597Z,98909.97
2023-11-29T03:57:33.095Z,98915.66
2023-11-29T03:58:30.236Z,98914.28
2023-11-29T03:59:27.278Z,98914.56
2023-11-29T04:00:24.856Z,98916.53
2023-11-29T04:01:22.000Z,98917.22
2023-11-29T04:02:19.249Z,98921.84
2023-11-29T04:03:16.513Z,98924.22
2023-11-29T04:04:13.587Z,98925.47
2023-11-29T04:05:10.752Z,98926.03
2023-11-29T04:06:07.873Z,98925.03
2023-11-29T04:07:05.169Z,98933.84
2023-11-29T04:08:03.018Z,98932.44
2023-11-29T04:09:00.085Z,98931.03
2023-11-29T04:10:02.217Z,98942.63
2023-11-29T04:11:04.837Z,98947.53
2023-11-29T04:12:02.299Z,98946.81
2023-11-29T04:12:59.449Z,98938.16
2023-11-29T04:13:56.396Z,98943.75
2023-11-29T04:14:53.384Z,98947.66
2023-11-29T04:15:50.428Z,98945.53
2023-11-29T04:16:47.438Z,98946.12
2023-11-29T04:17:44.723Z,98945.72
2023-11-29T04:18:41.704Z,98948.78
2023-11-29T04:19:40.725Z,98942.78
2023-11-29T04:20:37.745Z,98946.25
2023-11-29T04:21:35.944Z,98936.88
2023-11-29T04:22:33.296Z,98944.56
2023-11-29T04:23:30.707Z,98943.31
2023-11-29T04:24:27.977Z,98947.63
2023-11-29T04:25:25.273Z,98947.63
2023-11-29T04:26:41.397Z,98953.91
2023-11-29T04:27:39.107Z,98953.75
2023-11-29T04:28:36.095Z,98948.87
2023-11-29T04:29:33.452Z,98951.69
2023-11-29T04:30:31.066Z,98951.41
2023-11-29T04:31:29.673Z,98959.63
2023-11-29T04:32:26.749Z,98959.06
2023-11-29T04:33:23.919Z,98949.03
2023-11-29T04:34:28.252Z,98951.69
2023-11-29T04:35:33.347Z,98955.88
2023-11-29T04:36:30.625Z,98958.06
2023-11-29T04:37:27.868Z,98962.13
2023-11-29T04:38:25.816Z,98956.81
2023-11-29T04:39:22.962Z,98961.44
2023-11-29T04:40:20.477Z,98962.28
2023-11-29T04:41:18.343Z,98949.72
2023-11-29T04:42:16.035Z,98957.06
2023-11-29T04:43:13.688Z,98953.19
2023-11-29T04:44:11.650Z,98950.41
2023-11-29T04:45:09.545Z,98953.47
2023-11-29T04:46:06.875Z,98951.47
2023-11-29T04:47:04.874Z,98963.56
2023-11-29T04:48:02.561Z,98950.19
2023-11-29T04:48:59.775Z,98955.50
2023-11-29T04:49:57.358Z,98951.06
2023-11-29T04:50:54.748Z,98953.53
2023-11-29T04:51:53.449Z,98948.81
2023-11-29T04:52:51.020Z,98949.22
2023-11-29T04:53:48.496Z,98943.66
2023-11-29T04:54:46.370Z,98946.88
2023-11-29T04:55:44.069Z,98944.69
2023-11-29T04:56:41.441Z,98945.75
2023-11-29T04:57:38.778Z,98946.31
2023-11-29T04:58:41.506Z,98942.25
2023-11-29T04:59:39.937Z,98944.75
2023-11-29T05:00:37.328Z,98943.09
2023-11-29T05:01:34.692Z,98944.75
2023-11-29T05:02:32.165Z,98947.28
2023-11-29T05:03:30.465Z,98944.75
2023-11-29T05:04:28.036Z,98948.25
2023-11-29T05:05:25.594Z,98950.06
2023-11-29T05:06:23.410Z,98947.88
2023-11-29T05:07:20.760Z,98953.28
2023-11-29T05:08:18.044Z,98952.31
2023-11-29T05:09:16.274Z,98956.37
2023-11-29T05:10:15.119Z,98944.22
2023-11-29T05:11:12.704Z,98948.69
2023-11-29T05:12:09.922Z,98943.34
2023-11-29T05:13:10.386Z,98949.09
2023-11-29T05:14:07.776Z,98943.53
2023-11-29T05:15:07.070Z,98944.88
2023-11-29T05:16:04.755Z,98949.66
2023-11-29T05:17:01.985Z,98946.03
2023-11-29T05:17:59.236Z,98940.75
2023-11-29T05:18:56.640Z,98948.00
2023-11-29T05:19:54.124Z,98947.72
2023-11-29T05:20:51.346Z,98941.44
2023-11-29T05:21:48.515Z,98949.53
2023-11-29T05:22:45.643Z,98948.13
2023-11-29T05:23:42.850Z,98950.06
2023-11-29T05:24:40.378Z,98944.06
2023-11-29T05:25:37.694Z,98941.56
2023-11-29T05:26:34.896Z,98949.09
2023-11-29T05:27:32.209Z,98948.81
2023-11-29T05:28:29.458Z,98954.97
2023-11-29T05:29:27.122Z,98951.59
2023-11-29T05:30:24.474Z,98956.91
2023-11-29T05:31:21.725Z,98958.47
2023-11-29T05:32:19.334Z,98956.66
2023-11-29T05:33:18.043Z,98963.91
2023-11-29T05:34:15.790Z,98959.72
2023-11-29T05:35:13.612Z,98970.56
2023-11-29T05:36:11.815Z,98967.97
2023-11-29T05:37:09.416Z,98971.03
2023-11-29T05:38:06.775Z,98971.72
2023-11-29T05:39:04.378Z,98971.03
2023-11-29T05:40:01.633Z,98981.63
2023-11-29T05:40:59.457Z,98977.56
2023-11-29T05:41:56.880Z,98976.16
2023-11-29T05:42:54.545Z,98984.00
2023-11-29T05:43:52.943Z,98986.91
2023-11-29T05:44:51.126Z,98984.53
2023-11-29T05:45:48.573Z,98985.22
2023-11-29T05:46:45.865Z,98982.00
2023-11-29T05:47:43.197Z,98986.34
2023-11-29T05:48:40.837Z,98989.56
2023-11-29T05:49:38.288Z,98984.81
2023-11-29T05:50:38.147Z,98983.69
2023-11-29T05:51:37.163Z,98985.75
2023-11-29T05:52:34.679Z,98987.03
2023-11-29T05:53:32.052Z,98985.34
2023-11-29T05:54:29.626Z,98988.81
2023-11-29T05:55:27.288Z,98989.66
2023-11-29T05:56:25.679Z,98996.22
2023-11-29T05:57:23.402Z,99000.94
2023-11-29T05:58:21.078Z,99001.13
2023-11-29T05:59:19.161Z,99004.13
2023-11-29T06:00:27.754Z,99003.75
2023-11-29T06:01:28.959Z,99009.06
2023-11-29T06:02:27.230Z,99015.31
2023-11-29T06:03:27.312Z,99014.59
2023-11-29T06:04:24.843Z,99023.78
2023-11-29T06:05:22.462Z,99020.75
2023-11-29T06:06:19.816Z,99018.56
2023-11-29T06:07:17.395Z,99026.44
2023-11-29T06:08:15.097Z,99024.78
2023-11-29T06:09:12.997Z,99030.47
2023-11-29T06:10:10.441Z,99035.91
2023-11-29T06:11:08.922Z,99030.19
2023-11-29T06:12:07.343Z,99032.84
2023-11-29T06:13:04.739Z,99036.50
2023-11-29T06:14:02.299Z,99038.97
2023-11-29T06:14:59.963Z,99037.56
2023-11-29T06:15:57.762Z,99043.13
2023-11-29T06:16:55.096Z,99032.78
2023-11-29T06:17:52.867Z,99041.19
2023-11-29T06:18:51.267Z,99037.53
2023-11-29T06:19:49.457Z,99038.94
2023-11-29T06:20:46.808Z,99035.63
2023-11-29T06:21:44.395Z,99044.75
2023-11-29T06:22:41.710Z,99044.34
2023-11-29T06:23:42.338Z,99042.63
2023-11-29T06:24:41.423Z,99048.00
2023-11-29T06:25:38.723Z,99051.81
2023-11-29T06:26:36.173Z,99051.00
2023-11-29T06:27:33.465Z,99054.66
2023-11-29T06:28:30.876Z,99053.75
2023-11-29T06:29:28.174Z,99055.47
2023-11-29T06:30:25.579Z,99058.25
2023-11-29T06:31:22.648Z,99058.97
2023-11-29T06:32:19.959Z,99057.50
2023-11-29T06:33:17.413Z,99060.59
2023-11-29T06:34:14.562Z,99052.19
2023-11-29T06:35:15.076Z,99057.72
2023-11-29T06:36:12.292Z,99055.09
2023-11-29T06:37:09.403Z,99051.59
2023-11-29T06:38:08.458Z,99056.50
2023-11-29T06:39:05.843Z,99061.03
2023-11-29T06:40:05.578Z,99060.97
2023-11-29T06:41:02.778Z,99060.47
2023-11-29T06:42:00.012Z,99061.09
2023-11-29T06:42:57.059Z,99069.63
2023-11-29T06:43:55.208Z,99071.97
2023-11-29T06:44:53.701Z,99071.84
2023-11-29T06:45:51.009Z,99072.16
2023-11-29T06:46:49.479Z,99070.03
2023-11-29T06:47:48.488Z,99069.03
2023-11-29T06:48:45.863Z,99067.09
2023-11-29T06:49:43.001Z,99072.41
2023-11-29T06:50:40.370Z,99074.28
2023-11-29T06:51:39.950Z,99080.03
2023-11-29T06:52:37.746Z,99076.59
2023-11-29T06:53:35.264Z,99084.00
2023-11-29T06:54:32.415Z,99084.31
2023-11-29T06:55:29.576Z,99091.94
2023-11-29T06:56:26.695Z,99093.34
2023-11-29T06:57:25.006Z,99090.94
2023-11-29T06:58:24.268Z,99099.41
2023-11-29T06:59:21.667Z,99095.22
2023-11-29T07:00:19.156Z,99093.47
2023-11-29T07:01:17.389Z,99099.75
2023-11-29T07:02:14.691Z,99098.69
2023-11-29T07:03:12.020Z,99101.94
2023-11-29T07:04:10.111Z,99107.50
2023-11-29T07:05:09.257Z,99108.03
2023-11-29T07:06:07.213Z,99113.12
2023-11-29T07:07:04.658Z,99112.84
2023-11-29T07:08:01.921Z,99111.19
2023-11-29T07:08:59.518Z,99117.25
2023-11-29T07:09:56.680Z,99125.37
2023-11-29T07:10:53.806Z,99117.19
2023-11-29T07:11:50.984Z,99128.16
2023-11-29T07:12:48.526Z,99121.41
2023-11-29T07:13:45.737Z,99124.63
2023-11-29T07:14:43.597Z,99121.47
2023-11-29T07:15:40.887Z,99124.06
2023-11-29T07:16:38.266Z,99136.09
2023-11-29T07:17:35.531Z,99134.56
2023-11-29T07:18:32.801Z,99133.94
2023-11-29T07:19:29.976Z,99139.94
2023-11-29T07:20:34.020Z,99131.87
2023-11-29T07:21:37.700Z,99131.59
2023-11-29T07:22:36.234Z,99135.38
2023-11-29T07:23:42.040Z,99141.09
2023-11-29T07:24:39.068Z,99144.34
2023-11-29T07:25:36.083Z,99132.31
2023-11-29T07:26:33.364Z,99136.91
2023-11-29T07:27:30.629Z,99135.69
2023-11-29T07:28:28.465Z,99139.56
2023-11-29T07:29:25.703Z,99138.56
2023-11-29T07:30:22.814Z,99139.87
2023-11-29T07:31:20.260Z,99137.53
2023-11-29T07:32:17.940Z,99139.87
2023-11-29T07:33:15.444Z,99132.25
2023-11-29T07:34:12.609Z,99148.16
2023-11-29T07:35:09.647Z,99138.66
2023-11-29T07:36:13.658Z,99148.09
2023-11-29T07:37:10.799Z,99150.66
2023-11-29T07:38:08.025Z,99142.44
2023-11-29T07:39:06.770Z,99143.62
2023-11-29T07:40:04.496Z,99150.88
2023-11-29T07:41:01.524Z,99147.37
2023-11-29T07:41:58.878Z,99145.88
2023-11-29T07:42:56.086Z,99154.63
2023-11-29T07:43:53.629Z,99152.53
2023-11-29T07:44:51.297Z,99162.59
2023-11-29T07:45:49.191Z,99156.28
2023-11-29T07:46:46.549Z,99161.41
2023-11-29T07:47:45.077Z,99158.22
2023-11-29T07:48:42.310Z,99156.56
2023-11-29T07:49:39.672Z,99149.44
2023-11-29T07:50:36.858Z,99151.50
2023-11-29T07:51:34.282Z,99167.00
2023-11-29T07:52:31.650Z,99161.06
2023-11-29T07:53:29.986Z,99165.47
2023-11-29T07:54:27.324Z,99165.88
2023-11-29T07:55:24.445Z,99166.25
2023-11-29T07:56:21.665Z,99164.03
2023-11-29T07:57:19.149Z,99172.06
2023-11-29T07:58:21.270Z,99169.97
2023-11-29T07:59:25.686Z,99167.19
2023-11-29T08:00:23.035Z,99167.81
2023-11-29T08:01:20.269Z,99175.66
2023-11-29T08:02:17.401Z,99161.97
2023-11-29T08:03:16.366Z,99163.69
2023-11-29T08:04:13.731Z,99167.03
2023-11-29T08:05:11.134Z,99168.88
2023-11-29T08:06:08.972Z,99169.91
2023-11-29T08:07:06.320Z,99163.66
2023-11-29T08:08:04.108Z,99168.72
2023-11-29T08:09:02.050Z,99170.72
2023-11-29T08:09:59.245Z,99158.81
2023-11-29T08:10:56.602Z,99166.12
2023-11-29T08:11:54.036Z,99168.06
2023-11-29T08:12:52.141Z,99159.34
2023-11-29T08:13:50.263Z,99158.22
2023-11-29T08:14:47.387Z,99168.53
2023-11-29T08:15:45.003Z,99166.31
2023-11-29T08:16:42.337Z,99176.78
2023-11-29T08:17:40.367Z,99175.09
2023-11-29T08:18:38.314Z,99177.63
2023-11-29T08:19:35.651Z,99171.50
2023-11-29T08:20:33.755Z,99168.31
2023-11-29T08:21:32.905Z,99174.50
2023-11-29T08:22:30.123Z,99175.34
2023-11-29T08:23:27.413Z,99172.63
2023-11-29T08:24:24.570Z,99174.91
2023-11-29T08:25:27.138Z,99179.38
2023-11-29T08:26:26.231Z,99173.91
2023-11-29T08:27:25.546Z,99178.13
2023-11-29T08:28:22.874Z,99183.69
2023-11-29T08:29:20.134Z,99182.03
2023-11-29T08:30:17.526Z,99174.38
2023-11-29T08:31:14.932Z,99173.06
2023-11-29T08:32:12.087Z,99172.13
2023-11-29T08:33:09.764Z,99171.94
2023-11-29T08:34:07.239Z,99178.37
2023-11-29T08:35:05.591Z,99172.38
2023-11-29T08:36:04.373Z,99174.84
2023-11-29T08:37:01.671Z,99176.81
2023-11-29T08:37:58.878Z,99184.75
2023-11-29T08:38:57.145Z,99180.44
2023-11-29T08:39:56.714Z,99186.34
2023-11-29T08:40:53.896Z,99186.00
2023-11-29T08:41:51.163Z,99181.69
2023-11-29T08:42:48.410Z,99187.13
2023-11-29T08:43:45.505Z,99180.81
2023-11-29T08:44:43.553Z,99184.19
2023-11-29T08:45:40.702Z,99185.19
2023-11-29T08:46:37.877Z,99186.88
2023-11-29T08:47:35.347Z,99184.25
2023-11-29T08:48:33.174Z,99179.03
2023-11-29T08:49:31.045Z,99192.19
2023-11-29T08:50:28.208Z,99195.72
2023-11-29T08:51:25.420Z,99204.38
2023-11-29T08:52:25.504Z,99202.16
2023-11-29T08:53:32.922Z,99201.75
2023-11-29T08:54:35.133Z,99197.84
2023-11-29T08:55:32.792Z,99205.69
2023-11-29T08:56:30.133Z,99201.91
2023-11-29T08:57:27.796Z,99205.41
2023-11-29T08:58:26.662Z,99198.84
2023-11-29T08:59:24.090Z,99197.44
2023-11-29T09:00:26.313Z,99201.63
2023-11-29T09:01:24.065Z,99188.34
2023-11-29T09:02:23.908Z,99196.75
2023-11-29T09:03:22.888Z,99194.81
2023-11-29T09:04:20.331Z,99197.31
2023-11-29T09:05:22.006Z,99187.69
2023-11-29T09:06:19.830Z,99194.81
2023-11-29T09:07:18.551Z,99195.53
2023-11-29T09:08:16.246Z,99198.91
2023-11-29T09:09:13.965Z,99193.72
2023-11-29T09:10:13.231Z,99198.47
2023-11-29T09:11:10.566Z,99190.47
2023-11-29T09:12:12.492Z,99197.62
2023-11-29T09:13:10.028Z,99192.87
2023-11-29T09:14:12.864Z,99188.28
2023-11-29T09:15:11.825Z,99196.50
2023-11-29T09:16:09.890Z,99195.94
2023-11-29T09:17:07.315Z,99200.00
2023-11-29T09:18:37.016Z,99194.84
2023-11-29T09:19:38.037Z,99190.63
2023-11-29T09:20:35.834Z,99189.25
2023-11-29T09:21:38.435Z,99196.66
2023-11-29T09:22:36.381Z,99202.84
2023-11-29T09:23:34.535Z,99200.16
2023-11-29T09:24:33.319Z,99198.22
2023-11-29T09:25:30.593Z,99201.41
2023-11-29T09:26:30.571Z,99207.19
2023-11-29T09:27:28.132Z,99204.50
2023-11-29T09:28:25.787Z,99206.44
2023-11-29T09:29:27.706Z,99210.66
2023-11-29T09:30:25.231Z,99219.31
2023-11-29T09:31:23.036Z,99215.00
2023-11-29T09:32:20.788Z,99215.84
2023-11-29T09:33:18.531Z,99213.72
2023-11-29T09:34:15.904Z,99213.03
2023-11-29T09:35:15.861Z,99215.00
2023-11-29T09:36:13.228Z,99215.84
2023-11-29T09:37:10.717Z,99215.84
2023-11-29T09:38:07.897Z,99217.78
2023-11-29T09:39:13.600Z,99213.75
2023-11-29T09:40:12.390Z,99217.22
2023-11-29T09:41:09.669Z,99213.75
2023-11-29T09:42:07.077Z,99215.69
2023-11-29T09:43:04.527Z,99220.72
2023-11-29T09:44:04.789Z,99212.31
2023-11-29T09:45:06.388Z,99210.53
2023-11-29T09:46:03.738Z,99216.94
2023-11-29T09:47:01.938Z,99213.44
2023-11-29T09:48:00.075Z,99212.75
2023-11-29T09:48:58.916Z,99206.28
2023-11-29T09:49:57.213Z,99209.09
2023-11-29T09:50:55.498Z,99213.84
2023-11-29T09:51:52.809Z,99208.97
2023-11-29T09:52:51.187Z,99212.31
2023-11-29T09:53:48.365Z,99212.44
2023-11-29T09:54:45.630Z,99216.25
2023-11-29T09:55:42.888Z,99212.44
2023-11-29T09:56:40.360Z,99211.31
2023-11-29T09:57:37.933Z,99213.41
2023-11-29T09:58:35.309Z,99213.84
2023-11-29T09:59:32.491Z,99220.69
2023-11-29T10:00:30.197Z,99218.88
2023-11-29T10:01:28.114Z,99223.09
2023-11-29T10:02:25.464Z,99220.12
2023-11-29T10:03:47.835Z,99211.88
2023-11-29T10:04:45.530Z,99212.41
2023-11-29T10:05:50.373Z,99205.00
2023-11-29T10:06:47.525Z,99204.84
2023-11-29T10:07:49.826Z,99210.72
2023-11-29T10:08:49.007Z,99205.69
2023-11-29T10:09:46.453Z,99212.09
2023-11-29T10:10:47.146Z,99212.09
2023-11-29T10:11:44.964Z,99212.97
2023-11-29T10:12:46.259Z,99212.28
2023-11-29T10:13:43.755Z,99206.78
2023-11-29T10:14:45.010Z,99211.69
2023-11-29T10:15:49.286Z,99202.72
2023-11-29T10:16:50.112Z,99204.09
2023-11-29T10:17:47.169Z,99203.72
2023-11-29T10:18:46.695Z,99196.56
2023-11-29T10:19:48.800Z,99195.03
2023-11-29T10:21:03.683Z,99193.91
2023-11-29T10:22:06.266Z,99188.84
2023-11-29T10:23:04.272Z,99189.41
2023-11-29T10:24:01.491Z,99188.00
2023-11-29T10:24:58.800Z,99192.56
2023-11-29T10:25:58.371Z,99190.22
2023-11-29T10:26:55.851Z,99191.31
2023-11-29T10:27:53.155Z,99191.31
2023-11-29T10:28:52.714Z,99190.47
2023-11-29T10:29:51.278Z,99187.66
2023-11-29T10:30:48.599Z,99187.59
2023-11-29T10:31:48.182Z,99186.22
2023-11-29T10:32:46.589Z,99176.25
2023-11-29T10:33:47.052Z,99173.47
2023-11-29T10:34:44.218Z,99166.16
2023-11-29T10:35:42.007Z,99160.69
2023-11-29T10:36:42.775Z,99154.13
2023-11-29T10:37:46.382Z,99145.25
2023-11-29T10:39:10.323Z,99156.75
2023-11-29T10:40:08.392Z,99152.72
2023-11-29T10:41:06.040Z,99154.69
2023-11-29T10:42:08.839Z,99156.94
2023-11-29T10:43:07.031Z,99151.09
2023-11-29T10:44:06.075Z,99160.84
2023-11-29T10:45:04.032Z,99153.41
2023-11-29T10:46:19.240Z,99162.37
2023-11-29T10:47:36.658Z,99173.16
2023-11-29T10:48:36.213Z,99176.69
2023-11-29T10:49:35.815Z,99168.47
2023-11-29T10:50:33.699Z,99183.81
2023-11-29T10:51:32.147Z,99182.59
2023-11-29T10:52:29.341Z,99177.75
2023-11-29T10:53:27.116Z,99191.19
2023-11-29T10:54:39.565Z,99189.91
2023-11-29T10:55:40.950Z,99184.78
2023-11-29T10:56:38.741Z,99181.66
2023-11-29T10:57:46.935Z,99189.06
2023-11-29T10:59:22.833Z,99186.22
2023-11-29T11:00:20.712Z,99187.94
2023-11-29T11:01:32.947Z,99191.66
2023-11-29T11:02:31.755Z,99192.81
2023-11-29T11:03:45.015Z,99193.50
2023-11-29T11:04:48.870Z,99188.31
2023-11-29T11:05:46.249Z,99199.38
2023-11-29T11:06:43.790Z,99191.53
2023-11-29T11:07:45.551Z,99188.53
2023-11-29T11:08:45.002Z,99190.69
2023-11-29T11:09:45.916Z,99191.75
2023-11-29T11:10:44.102Z,99190.00
2023-11-29T11:11:46.173Z,99198.41
2023-11-29T11:12:43.952Z,99187.75
2023-11-29T11:13:41.483Z,99197.31
2023-11-29T11:14:52.725Z,99198.50
2023-11-29T11:15:50.080Z,99198.38
2023-11-29T11:17:08.385Z,99194.56
2023-11-29T11:18:05.563Z,99196.41
2023-11-29T11:19:03.496Z,99196.28
2023-11-29T11:20:06.457Z,99191.66
2023-11-29T11:21:06.679Z,99190.06
2023-11-29T11:22:07.893Z,99188.53
2023-11-29T11:23:07.028Z,99197.53
2023-11-29T11:24:04.442Z,99191.38
2023-11-29T11:25:23.344Z,99196.03
2023-11-29T11:26:20.537Z,99194.28
2023-11-29T11:27:20.120Z,99190.06
2023-11-29T11:28:34.464Z,99194.88
2023-11-29T11:29:34.527Z,99191.06
2023-11-29T11:30:31.913Z,99196.84
2023-11-29T11:31:29.318Z,99200.44
2023-11-29T11:32:38.825Z,99200.31
2023-11-29T11:33:55.241Z,99196.19
2023-11-29T11:34:55.360Z,99203.50
2023-11-29T11:35:52.819Z,99205.88
2023-11-29T11:36:53.430Z,99204.62
2023-11-29T11:37:54.963Z,99198.63
2023-11-29T11:38:52.744Z,99201.22
2023-11-29T11:39:50.330Z,99203.00
2023-11-29T11:40:48.417Z,99201.75